Time;durP1;ratioP1;P1;durP2;ratioP2;P2;SDS_P1;SDS_P2;PMS_P1;PMS_P2;Temp;Humidity;BMP_temperature;BMP_pressure;BME280_temperature;BME280_humidity;BME280_pressure;Samples;Min_cycle;Max_cycle;Signal;HPM_P1;HPM_P2
2023/11/29 00:02:15;;;;;;;69.70;48.70;;;;;;;-1.90;100.00;99370.69;111219;1258;22124;-82
2023/11/29 00:05:03;;;;;;;73.80;49.30;;;;;;;-1.91;100.00;99367.27;110985;1258;23625;-81
2023/11/29 00:07:49;;;;;;;71.30;50.50;;;;;;;-1.95;100.00;99366.42;111241;1258;21971;-83
2023/11/29 00:10:43;;;;;;;72.50;52.40;;;;;;;-1.98;100.00;99372.59;110984;1258;21995;-81
2023/11/29 00:13:40;;;;;;;74.80;53.20;;;;;;;-2.01;100.00;99378.88;110600;1264;21970;-81
2023/11/29 00:16:21;;;;;;;72.60;52.80;;;;;;;-2.17;100.00;99358.48;109945;1270;22057;-81
2023/11/29 00:19:06;;;;;;;80.30;52.60;;;;;;;-2.05;100.00;99377.87;109769;1270;22032;-84
2023/11/29 00:21:56;;;;;;;72.50;51.60;;;;;;;-2.08;100.00;99380.78;109758;1270;22020;-82
2023/11/29 00:24:47;;;;;;;67.80;48.90;;;;;;;-2.11;100.00;99380.64;109717;1271;21984;-82
2023/11/29 00:27:51;;;;;;;72.60;50.40;;;;;;;-2.10;100.00;99389.64;109947;1270;21984;-83
2023/11/29 00:31:00;;;;;;;74.60;52.50;;;;;;;-2.07;100.00;99392.37;109646;1266;23640;-81
2023/11/29 00:33:48;;;;;;;75.30;52.40;;;;;;;-2.09;100.00;99396.30;109966;1263;21977;-80
2023/11/29 00:36:39;;;;;;;75.50;52.70;;;;;;;-2.10;100.00;99391.70;110616;1264;23720;-82
2023/11/29 00:39:34;;;;;;;72.90;50.30;;;;;;;-2.19;100.00;99386.27;110604;1263;22757;-80
2023/11/29 00:42:17;;;;;;;66.90;49.00;;;;;;;-2.21;100.00;99389.15;110529;1263;22262;-83
2023/11/29 00:45:01;;;;;;;71.00;50.60;;;;;;;-2.19;100.00;99392.40;110587;1264;21979;-82
2023/11/29 00:47:48;;;;;;;68.10;50.50;;;;;;;-2.15;100.00;99394.43;110245;1266;22062;-81
2023/11/29 00:50:38;;;;;;;71.80;52.30;;;;;;;-2.13;100.00;99398.02;110413;1266;21984;-80
2023/11/29 00:53:23;;;;;;;69.90;49.60;;;;;;;-2.13;100.00;99396.65;109642;1271;24377;-79
2023/11/29 00:56:06;;;;;;;67.30;48.10;;;;;;;-2.10;100.00;99397.48;109256;1276;21985;-80
2023/11/29 00:58:45;;;;;;;70.90;50.90;;;;;;;-2.06;100.00;99401.57;109174;1276;22163;-80
2023/11/29 01:01:29;;;;;;;74.70;53.90;;;;;;;-2.02;100.00;99404.13;108974;1276;22457;-81
2023/11/29 01:04:20;;;;;;;64.90;49.40;;;;;;;-2.00;100.00;99401.05;109004;1276;21997;-81
2023/11/29 01:06:53;;;;;;;67.30;50.10;;;;;;;-2.00;100.00;99400.03;109227;1271;22023;-81
2023/11/29 01:09:23;;;;;;;68.10;47.90;;;;;;;-2.01;100.00;99400.38;109211;1276;22793;-81
2023/11/29 01:12:04;;;;;;;70.80;51.00;;;;;;;-2.00;100.00;99400.20;109877;1267;22016;-81
2023/11/29 01:14:39;;;;;;;70.90;52.60;;;;;;;-2.00;100.00;99402.07;109930;1266;23565;-82
2023/11/29 01:17:18;;;;;;;70.90;54.10;;;;;;;-1.99;100.00;99406.69;110573;1264;22031;-82
2023/11/29 01:20:23;;;;;;;64.00;50.00;;;;;;;-1.97;100.00;99417.77;110684;1262;22152;-80
2023/11/29 01:23:04;;;;;;;75.50;55.70;;;;;;;-1.97;100.00;99420.32;110769;1259;22009;-81
2023/11/29 01:25:45;;;;;;;76.30;55.50;;;;;;;-1.95;100.00;99417.41;110486;1261;23076;-81
2023/11/29 01:28:27;;;;;;;71.30;53.20;;;;;;;-1.95;100.00;99416.74;109642;1271;23032;-80
2023/11/29 01:31:12;;;;;;;67.70;49.40;;;;;;;-1.95;100.00;99419.30;109383;1277;22127;-81
2023/11/29 01:34:07;;;;;;;74.50;53.60;;;;;;;-1.94;100.00;99424.92;109566;1273;22756;-81
2023/11/29 01:37:06;;;;;;;72.90;52.70;;;;;;;-2.00;100.00;99424.59;109020;1278;22485;-82
2023/11/29 01:40:20;;;;;;;71.80;51.90;;;;;;;-2.02;100.00;99423.40;109224;1278;22018;-81
2023/11/29 01:43:06;;;;;;;70.30;52.00;;;;;;;-2.05;100.00;99424.09;108982;1278;23685;-80
2023/11/29 01:45:38;;;;;;;72.80;53.00;;;;;;;-2.07;100.00;99423.06;109180;1273;22367;-80
2023/11/29 01:48:16;;;;;;;77.60;57.70;;;;;;;-2.08;100.00;99427.48;109291;1272;22102;-82
2023/11/29 01:51:16;;;;;;;79.80;56.30;;;;;;;-2.11;100.00;99434.15;109836;1268;24319;-84
2023/11/29 01:54:07;;;;;;;75.00;54.50;;;;;;;-2.16;100.00;99434.16;109746;1265;22797;-81
2023/11/29 01:57:00;;;;;;;80.50;55.40;;;;;;;-2.21;100.00;99433.48;109522;1267;23647;-82
2023/11/29 01:59:52;;;;;;;79.30;54.80;;;;;;;-2.24;100.00;99431.10;109787;1271;21987;-81
2023/11/29 02:02:28;;;;;;;84.60;59.60;;;;;;;-2.28;100.00;99431.44;109475;1273;22306;-79
2023/11/29 02:05:26;;;;;;;79.00;56.70;;;;;;;-2.47;100.00;99410.15;109610;1273;22738;-80
2023/11/29 02:08:08;;;;;;;75.80;56.00;;;;;;;-2.34;100.00;99435.02;109755;1270;22009;-82
2023/11/29 02:10:44;;;;;;;73.60;54.90;;;;;;;-2.34;100.00;99431.44;109691;1271;21991;-82
2023/11/29 02:13:25;;;;;;;79.20;56.60;;;;;;;-2.32;100.00;99434.16;109706;1271;24337;-82
2023/11/29 02:16:02;;;;;;;76.70;56.70;;;;;;;-2.30;100.00;99431.27;109849;1268;23849;-80
2023/11/29 02:18:57;;;;;;;84.50;58.10;;;;;;;-2.29;100.00;99425.80;110017;1268;21991;-80
2023/11/29 02:21:48;;;;;;;77.30;55.40;;;;;;;-2.28;100.00;99429.23;110450;1263;21978;-80
2023/11/29 02:24:41;;;;;;;74.10;54.50;;;;;;;-2.28;100.00;99429.39;109976;1268;23759;-81
2023/11/29 02:27:23;;;;;;;75.30;55.20;;;;;;;-2.30;100.00;99432.63;109756;1268;22250;-80
2023/11/29 02:29:57;;;;;;;77.70;55.10;;;;;;;-2.31;100.00;99433.13;109598;1272;23730;-80
2023/11/29 02:32:42;;;;;;;75.50;52.20;;;;;;;-2.33;100.00;99436.88;109479;1272;21990;-81
2023/11/29 02:35:39;;;;;;;74.20;50.30;;;;;;;-2.41;100.00;99442.85;109409;1272;22004;-82
2023/11/29 02:38:30;;;;;;;77.60;49.60;;;;;;;-2.46;100.00;99453.42;109534;1272;22003;-80
2023/11/29 02:41:15;;;;;;;73.40;50.30;;;;;;;-2.52;100.00;99456.15;109611;1272;21984;-81
2023/11/29 02:43:56;;;;;;;75.60;50.80;;;;;;;-2.56;100.00;99451.20;109877;1257;21986;-82
2023/11/29 02:46:37;;;;;;;81.90;53.80;;;;;;;-2.57;100.00;99454.26;110125;1267;22738;-82
2023/11/29 02:49:23;;;;;;;81.60;51.30;;;;;;;-2.57;100.00;99458.17;110820;1258;21959;-80
2023/11/29 02:52:05;;;;;;;84.00;51.50;;;;;;;-2.58;100.00;99455.80;110863;1258;21979;-81
2023/11/29 02:54:46;;;;;;;87.40;55.80;;;;;;;-2.61;100.00;99455.63;111088;1258;22077;-82
2023/11/29 02:57:21;;;;;;;84.90;54.60;;;;;;;-2.64;100.00;99452.03;110972;1258;21974;-81
2023/11/29 03:00:02;;;;;;;82.50;53.50;;;;;;;-2.68;100.00;99451.85;110888;1258;23030;-82
2023/11/29 03:02:42;;;;;;;76.30;49.50;;;;;;;-2.73;100.00;99457.80;110860;1258;21988;-80
2023/11/29 03:05:13;;;;;;;76.00;50.30;;;;;;;-2.77;100.00;99464.11;110849;1258;21983;-81
2023/11/29 03:07:47;;;;;;;72.10;48.80;;;;;;;-2.83;100.00;99463.59;110779;1258;23625;-82
2023/11/29 03:10:23;;;;;;;67.60;45.60;;;;;;;-2.85;100.00;99466.47;110481;1263;23609;-82
2023/11/29 03:13:17;;;;;;;67.60;45.80;;;;;;;-2.90;100.00;99468.84;110568;1263;22061;-82
2023/11/29 03:15:59;;;;;;;68.10;47.20;;;;;;;-2.93;100.00;99467.14;110366;1263;21966;-80
2023/11/29 03:18:42;;;;;;;68.20;46.50;;;;;;;-2.94;100.00;99472.41;109966;1270;22000;-83
2023/11/29 03:21:23;;;;;;;71.80;46.70;;;;;;;-2.96;100.00;99472.73;109749;1270;22021;-81
2023/11/29 03:24:19;;;;;;;69.20;45.40;;;;;;;-2.95;100.00;99479.56;109820;1270;23046;-83
2023/11/29 03:27:03;;;;;;;66.70;45.00;;;;;;;-2.98;100.00;99481.42;109808;1268;23043;-82
2023/11/29 03:29:59;;;;;;;65.40;46.50;;;;;;;-2.98;100.00;99489.25;110048;1266;22721;-83
2023/11/29 03:32:34;;;;;;;67.90;46.20;;;;;;;-3.02;100.00;99490.76;110344;1266;22466;-80
2023/11/29 03:35:32;;;;;;;61.90;43.60;;;;;;;-3.09;100.00;99489.89;110275;1266;21980;-82
2023/11/29 03:38:15;;;;;;;61.70;42.30;;;;;;;-3.14;100.00;99488.00;110976;1258;21974;-82
2023/11/29 03:40:53;;;;;;;66.20;45.30;;;;;;;-3.20;100.00;99484.58;110915;1258;21951;-82
2023/11/29 03:46:43;;;;;;;63.90;42.50;;;;;;;-3.26;100.00;99489.48;110979;1257;22747;-78
2023/11/29 03:49:26;;;;;;;62.80;41.20;;;;;;;-3.26;100.00;99489.14;111064;1245;23042;-81
2023/11/29 03:52:10;;;;;;;65.60;43.40;;;;;;;-3.23;100.00;99483.72;111054;1259;22000;-80
2023/11/29 03:54:54;;;;;;;71.70;43.60;;;;;;;-3.32;100.00;99461.38;111053;1257;23074;-81
2023/11/29 03:57:27;;;;;;;68.50;42.90;;;;;;;-3.28;100.00;99461.75;110520;1263;22786;-80
2023/11/29 04:00:02;;;;;;;72.10;46.00;;;;;;;-3.12;100.00;99484.77;110439;1264;22446;-81
2023/11/29 04:02:48;;;;;;;83.40;49.90;;;;;;;-3.09;100.00;99488.36;110651;1262;21971;-81
2023/11/29 04:05:32;;;;;;;71.10;44.50;;;;;;;-3.07;100.00;99490.91;110412;1264;21993;-81
2023/11/29 04:08:24;;;;;;;70.20;45.80;;;;;;;-3.08;100.00;99487.69;110652;1263;23676;-79
2023/11/29 04:11:13;;;;;;;73.60;46.30;;;;;;;-3.06;100.00;99491.09;110415;1263;21989;-80
2023/11/29 04:14:07;;;;;;;70.00;46.00;;;;;;;-3.14;100.00;99481.54;110430;1263;21982;-80
2023/11/29 04:16:53;;;;;;;;;;;;;;;-3.14;100.00;99494.82;110340;1264;21973;-81
2023/11/29 04:19:46;;;;;;;73.70;43.60;;;;;;;-3.29;100.00;99490.32;109849;1270;21828;-81
2023/11/29 04:22:29;;;;;;;76.30;46.70;;;;;;;-3.29;100.00;99492.36;109534;1270;22007;-81
2023/11/29 04:25:14;;;;;;;87.40;55.00;;;;;;;-3.25;100.00;99494.76;109708;1270;21979;-82
2023/11/29 04:28:05;;;;;;;78.20;48.50;;;;;;;-3.25;100.00;99492.55;109751;1270;21979;-83
2023/11/29 04:30:40;;;;;;;78.30;47.60;;;;;;;-3.24;100.00;99486.77;109732;1270;22030;-79
2023/11/29 04:33:26;;;;;;;84.40;50.80;;;;;;;-3.23;100.00;99485.24;109778;1270;23734;-81
2023/11/29 04:36:10;;;;;;;103.10;68.70;;;;;;;-3.18;100.00;99483.91;110151;1268;21985;-80
2023/11/29 04:38:52;;;;;;;89.90;54.00;;;;;;;-3.14;100.00;99476.77;111136;1259;21974;-82
2023/11/29 04:41:33;;;;;;;77.90;50.00;;;;;;;-3.09;100.00;99475.42;111227;1259;21997;-82
2023/11/29 04:44:14;;;;;;;86.00;54.30;;;;;;;-3.05;100.00;99474.92;111066;1259;23122;-80
2023/11/29 04:46:55;;;;;;;78.50;51.40;;;;;;;-3.08;100.00;99465.73;110996;1259;22051;-82
2023/11/29 04:49:36;;;;;;;76.70;47.20;;;;;;;-2.97;100.00;99474.27;110929;1259;21992;-81
2023/11/29 04:52:36;;;;;;;83.60;46.20;;;;;;;-2.98;100.00;99472.23;110603;1260;21958;-79
2023/11/29 04:55:27;;;;;;;79.80;49.10;;;;;;;-2.96;100.00;99467.81;110723;1260;23029;-80
2023/11/29 04:58:16;;;;;;;83.60;49.10;;;;;;;-2.96;100.00;99470.70;110759;1260;23024;-82
2023/11/29 05:00:53;;;;;;;85.20;53.20;;;;;;;-2.95;100.00;99472.75;110677;1257;24363;-80
2023/11/29 05:03:34;;;;;;;100.40;64.90;;;;;;;-2.93;100.00;99471.73;110033;1265;23071;-81
2023/11/29 05:09:14;;;;;;;99.90;56.80;;;;;;;-2.93;100.00;99473.27;110263;1268;22082;-84
2023/11/29 05:11:55;;;;;;;95.30;57.10;;;;;;;-2.91;100.00;99469.86;109672;1272;23132;-84
2023/11/29 05:14:31;;;;;;;103.00;60.60;;;;;;;-2.87;100.00;99472.25;109627;1266;22001;-82
2023/11/29 05:17:05;;;;;;;92.00;55.40;;;;;;;-2.82;100.00;99470.58;109649;1272;21977;-82
2023/11/29 05:22:32;;;;;;;92.90;57.80;;;;;;;-2.77;100.00;99475.02;110094;1270;21981;-81
2023/11/29 05:25:23;;;;;;;98.30;59.70;;;;;;;-2.75;100.00;99474.67;109464;1270;22000;-80
2023/11/29 05:27:56;;;;;;;259.50;182.50;;;;;;;-2.71;100.00;99472.29;108951;1278;22000;-81
2023/11/29 05:30:27;;;;;;;121.60;91.40;;;;;;;-2.72;100.00;99471.95;109420;1273;23091;-83
2023/11/29 05:33:25;;;;;;;105.20;69.00;;;;;;;-2.73;100.00;99471.10;109580;1268;22316;-83
2023/11/29 05:36:05;;;;;;;91.00;55.90;;;;;;;-2.73;100.00;99472.97;110084;1269;23766;-82
2023/11/29 05:38:38;;;;;;;101.10;60.30;;;;;;;-2.71;100.00;99472.13;109945;1269;23728;-83
2023/11/29 05:41:14;;;;;;;97.20;58.00;;;;;;;-2.68;100.00;99469.23;109744;1269;22014;-83
2023/11/29 05:44:00;;;;;;;78.90;49.90;;;;;;;-2.69;100.00;99472.80;110512;1263;23027;-81
2023/11/29 05:46:32;;;;;;;81.00;53.00;;;;;;;-2.69;100.00;99471.77;109967;1265;23728;-83
2023/11/29 05:49:08;;;;;;;83.00;52.50;;;;;;;-2.72;100.00;99475.01;110357;1267;21982;-81
2023/11/29 05:52:06;;;;;;;74.60;48.90;;;;;;;-2.73;100.00;99476.36;110176;1268;22457;-82
2023/11/29 05:55:15;;;;;;;70.60;47.20;;;;;;;-2.74;100.00;99476.38;110320;1267;21981;-81
2023/11/29 05:58:12;;;;;;;79.80;53.10;;;;;;;-2.76;100.00;99475.70;110211;1267;21960;-81
2023/11/29 06:01:01;;;;;;;79.20;52.40;;;;;;;-2.75;100.00;99473.14;110350;1267;21986;-81
2023/11/29 06:03:49;;;;;;;72.30;50.80;;;;;;;-2.72;100.00;99473.83;109427;1273;21974;-83
2023/11/29 06:06:30;;;;;;;67.80;46.70;;;;;;;-2.71;100.00;99475.70;110277;1264;23536;-81
2023/11/29 06:09:18;;;;;;;158.90;95.10;;;;;;;-2.73;100.00;99480.80;110286;1268;23809;-81
2023/11/29 06:12:44;;;;;;;224.10;122.10;;;;;;;-2.75;100.00;99489.31;110367;1267;21994;-80
2023/11/29 06:15:58;;;;;;;80.20;55.10;;;;;;;-2.72;100.00;99494.27;109793;1271;21982;-82
2023/11/29 06:18:50;;;;;;;93.70;61.50;;;;;;;-2.71;100.00;99495.97;109748;1271;21996;-82
2023/11/29 06:21:40;;;;;;;82.80;56.10;;;;;;;-2.69;100.00;99494.77;109956;1266;21981;-82
2023/11/29 06:24:31;;;;;;;99.60;64.60;;;;;;;-2.70;100.00;99489.16;110017;1266;21943;-82
2023/11/29 06:27:17;;;;;;;86.80;57.40;;;;;;;-2.69;100.00;99497.50;109501;1268;22756;-82
2023/11/29 06:30:08;;;;;;;97.70;67.40;;;;;;;-2.70;100.00;99498.69;110244;1268;23706;-81
2023/11/29 06:32:49;;;;;;;90.70;64.30;;;;;;;-2.64;100.00;99499.05;109952;1270;23668;-82
2023/11/29 06:35:55;;;;;;;82.80;57.40;;;;;;;-2.61;100.00;99499.73;109908;1268;21976;-81
2023/11/29 06:38:42;;;;;;;90.80;60.40;;;;;;;-2.62;100.00;99496.67;110063;1268;22075;-84
2023/11/29 06:41:31;;;;;;;80.10;57.50;;;;;;;-2.57;100.00;99494.98;110108;1268;22011;-86
2023/11/29 06:44:21;;;;;;;77.40;54.50;;;;;;;-2.57;100.00;99496.85;110020;1268;23631;-81
2023/11/29 06:46:57;;;;;;;74.70;54.20;;;;;;;-2.57;100.00;99500.42;110587;1263;22232;-81
2023/11/29 06:49:31;;;;;;;75.20;52.40;;;;;;;-2.58;100.00;99503.33;110720;1262;21976;-82
2023/11/29 06:52:08;;;;;;;78.60;54.50;;;;;;;-2.60;100.00;99505.20;110530;1263;22002;-83
2023/11/29 06:54:42;;;;;;;76.10;51.70;;;;;;;-2.62;100.00;99506.89;110812;1263;22031;-81
2023/11/29 06:57:17;;;;;;;74.50;52.20;;;;;;;-2.65;100.00;99507.56;110980;1262;23693;-80
2023/11/29 07:00:14;;;;;;;68.40;47.10;;;;;;;-2.63;100.00;99507.40;110849;1250;22126;-82
2023/11/29 07:02:49;;;;;;;60.90;44.90;;;;;;;-2.62;100.00;99509.95;110409;1266;21974;-81
2023/11/29 07:05:31;;;;;;;74.70;53.40;;;;;;;-2.57;100.00;99516.10;109906;1271;22015;-82
2023/11/29 07:08:17;;;;;;;79.40;58.80;;;;;;;-2.58;100.00;99514.73;109908;1270;21985;-81
2023/11/29 07:10:58;;;;;;;69.50;51.10;;;;;;;-2.63;100.00;99510.80;109357;1275;23110;-81
2023/11/29 07:13:51;;;;;;;83.20;56.10;;;;;;;-2.65;100.00;99515.23;109649;1272;21982;-80
2023/11/29 07:16:27;;;;;;;87.00;62.30;;;;;;;-2.64;100.00;99520.52;109504;1272;21996;-83
2023/11/29 07:19:47;;;;;;;83.20;59.00;;;;;;;-2.65;100.00;99526.64;109510;1272;21998;-82
2023/11/29 07:22:24;;;;;;;79.70;53.20;;;;;;;-2.73;100.00;99530.36;110136;1268;21979;-82
2023/11/29 07:24:57;;;;;;;72.60;53.40;;;;;;;-2.78;100.00;99533.92;110209;1269;21978;-80
2023/11/29 07:27:32;;;;;;;74.10;58.70;;;;;;;-2.78;100.00;99540.05;110011;1269;22081;-81
2023/11/29 07:30:06;;;;;;;76.80;57.20;;;;;;;-2.78;100.00;99546.53;109584;1271;21988;-80
2023/11/29 07:32:39;;;;;;;71.90;51.30;;;;;;;-2.80;100.00;99545.00;109696;1272;22041;-81
2023/11/29 07:35:23;;;;;;;66.20;51.70;;;;;;;-2.83;100.00;99543.61;109510;1263;23062;-80
2023/11/29 07:38:03;;;;;;;74.30;49.30;;;;;;;-2.86;100.00;99542.92;109423;1274;23766;-82
2023/11/29 07:40:38;;;;;;;67.90;47.90;;;;;;;-2.86;100.00;99547.02;109587;1275;22013;-80
2023/11/29 07:43:22;;;;;;;73.70;49.20;;;;;;;-2.84;100.00;99557.57;109621;1269;23034;-81
2023/11/29 07:45:57;;;;;;;61.10;44.70;;;;;;;-2.84;100.00;99558.26;109812;1268;22462;-80
2023/11/29 07:48:39;;;;;;;59.80;42.10;;;;;;;-2.86;100.00;99557.23;110028;1268;23525;-80
2023/11/29 07:51:27;;;;;;;58.10;42.90;;;;;;;-2.87;100.00;99556.38;110511;1268;23705;-81
2023/11/29 07:54:01;;;;;;;56.90;37.80;;;;;;;-2.89;100.00;99556.19;110463;1264;22014;-81
2023/11/29 07:56:45;;;;;;;53.70;41.20;;;;;;;-2.94;100.00;99557.02;110883;1264;23696;-80
2023/11/29 07:59:24;;;;;;;54.70;35.60;;;;;;;-3.01;100.00;99560.74;110352;1269;21976;-80
2023/11/29 08:02:01;;;;;;;60.60;38.90;;;;;;;-3.05;100.00;99565.15;110003;1257;21978;-81
2023/11/29 08:04:42;;;;;;;49.50;35.80;;;;;;;-3.05;100.00;99567.70;110066;1268;22030;-80
2023/11/29 08:07:26;;;;;;;50.30;37.90;;;;;;;-3.03;100.00;99567.20;110042;1267;21958;-81
2023/11/29 08:10:07;;;;;;;63.10;41.60;;;;;;;-2.99;100.00;99566.37;109926;1268;23602;-80
2023/11/29 08:12:42;;;;;;;48.50;35.00;;;;;;;-2.97;100.00;99562.80;109899;1268;22396;-82
2023/11/29 08:15:40;;;;;;;54.00;39.40;;;;;;;-2.95;100.00;99565.18;109732;1267;21993;-79
2023/11/29 08:18:49;;;;;;;43.80;31.30;;;;;;;-2.96;100.00;99574.38;110489;1264;22472;-81
2023/11/29 08:21:34;;;;;;;;;;;;;;;;;;;;;
2023/11/29 08:24:23;;;;;;;51.40;36.60;;;;;;;-2.99;100.00;99579.48;110347;1264;24024;-80
2023/11/29 08:27:24;;;;;;;53.10;37.30;;;;;;;-2.99;100.00;99583.56;110842;1263;23032;-83
2023/11/29 08:33:16;;;;;;;46.40;33.10;;;;;;;-2.84;100.00;99576.81;109786;1271;21991;-81
2023/11/29 08:35:59;;;;;;;43.20;31.70;;;;;;;-2.72;100.00;99580.27;109720;1270;22049;-82
2023/11/29 08:38:51;;;;;;;36.60;25.20;;;;;;;-2.71;100.00;99580.96;109462;1274;21980;-80
2023/11/29 08:41:35;;;;;;;40.00;28.70;;;;;;;-2.80;100.00;99584.84;109333;1275;21991;-81
2023/11/29 08:44:31;;;;;;;39.20;30.30;;;;;;;-2.87;100.00;99582.25;109578;1271;21968;-81
2023/11/29 08:47:09;;;;;;;29.50;21.60;;;;;;;-3.02;100.00;99562.09;110068;1271;21994;-80
2023/11/29 08:49:53;;;;;;;45.80;29.20;;;;;;;-2.95;100.00;99571.48;109785;1272;21962;-82
2023/11/29 08:52:50;;;;;;;33.20;25.50;;;;;;;-2.92;100.00;99573.20;109632;1272;22444;-79
2023/11/29 08:55:44;;;;;;;46.40;28.50;;;;;;;-2.89;100.00;99572.53;109791;1272;22705;-80
2023/11/29 08:58:34;;;;;;;38.80;26.70;;;;;;;-2.82;100.00;99566.09;110159;1268;21972;-81
2023/11/29 09:01:52;;;;;;;36.20;28.10;;;;;;;-2.78;100.00;99559.30;110317;1268;21996;-81
2023/11/29 09:04:35;;;;;;;35.10;24.50;;;;;;;-2.70;100.00;99558.98;107017;1270;22110;-81
2023/11/29 09:07:27;;;;;;;28.30;23.50;;;;;;;-2.63;100.00;99560.38;110182;1267;21984;-83
2023/11/29 09:10:08;;;;;;;28.20;20.90;;;;;;;-2.55;100.00;99565.16;110587;1259;21985;-83
2023/11/29 09:12:49;;;;;;;36.90;24.90;;;;;;;-2.49;100.00;99565.52;111192;1257;23028;-83
2023/11/29 09:15:25;;;;;;;38.20;26.60;;;;;;;-2.41;100.00;99566.56;110697;1265;21979;-78
2023/11/29 09:18:09;;;;;;;54.30;25.30;;;;;;;-2.30;100.00;99569.31;110543;1265;23599;-80
2023/11/29 09:20:43;;;;;;;25.30;19.50;;;;;;;-2.22;100.00;99566.27;110677;1265;22672;-81
2023/11/29 09:23:22;;;;;;;23.60;18.70;;;;;;;-2.29;100.00;99565.57;110755;1265;21993;-80
2023/11/29 09:25:54;;;;;;;27.00;20.40;;;;;;;-2.36;100.00;99562.66;110444;1261;23110;-83
2023/11/29 09:28:31;;;;;;;29.40;23.70;;;;;;;-2.34;100.00;99562.33;110081;1270;21980;-84
2023/11/29 09:31:19;;;;;;;34.60;24.70;;;;;;;-2.30;100.00;99563.68;109416;1275;21988;-81
2023/11/29 09:34:15;;;;;;;36.10;26.40;;;;;;;-2.29;100.00;99563.02;109562;1269;23716;-81
2023/11/29 09:36:54;;;;;;;27.00;21.10;;;;;;;-2.29;100.00;99560.97;109360;1275;22409;-79
2023/11/29 09:39:28;;;;;;;;;;;;;;;-2.42;100.00;99535.38;109296;1275;21971;-81
2023/11/29 09:42:02;;;;;;;29.10;23.00;;;;;;;-2.28;100.00;99551.42;109186;1279;22494;-76
2023/11/29 09:44:44;;;;;;;27.20;22.50;;;;;;;-2.20;100.00;99547.69;108827;1279;22002;-81
2023/11/29 09:47:39;;;;;;;28.70;22.10;;;;;;;-2.07;100.00;99549.73;109222;1276;21985;-82
2023/11/29 09:50:12;;;;;;;27.10;22.30;;;;;;;-2.00;100.00;99542.41;109607;1270;22753;-82
2023/11/29 09:52:50;;;;;;;36.20;27.20;;;;;;;-1.89;100.00;99541.56;109851;1270;21986;-82
2023/11/29 09:55:33;;;;;;;28.30;20.90;;;;;;;-1.78;100.00;99536.10;109566;1270;22153;-80
2023/11/29 09:58:21;;;;;;;33.20;24.00;;;;;;;-1.77;100.00;99530.80;109376;1275;21985;-81
2023/11/29 10:01:02;;;;;;;36.80;25.80;;;;;;;-1.82;100.00;99526.71;109216;1275;22911;-82
2023/11/29 10:04:04;;;;;;;54.70;38.20;;;;;;;-1.87;100.00;99530.65;109459;1275;21991;-81
2023/11/29 10:06:41;;;;;;;44.90;29.60;;;;;;;-1.92;100.00;99530.64;109399;1275;22292;-82
2023/11/29 10:10:03;;;;;;;38.50;28.40;;;;;;;-1.89;100.00;99532.17;109333;1277;23637;-82
2023/11/29 10:12:53;;;;;;;28.70;21.80;;;;;;;-1.80;100.00;99534.23;109278;1277;23641;-80
2023/11/29 10:15:51;;;;;;;26.00;21.00;;;;;;;-1.57;100.00;99532.48;109684;1269;22045;-82
2023/11/29 10:19:53;;;;;;;31.10;25.50;;;;;;;-1.31;100.00;99527.82;110593;1268;23074;-88
2023/11/29 10:23:00;;;;;;;31.50;25.20;;;;;;;-1.18;100.00;99531.70;110021;1267;22800;-85
2023/11/29 10:25:58;;;;;;;;;;;;;;;;;;;;;
2023/11/29 10:28:48;;;;;;;36.20;25.60;;;;;;;-1.28;100.00;99535.50;110720;1259;22821;-83
2023/11/29 10:31:37;;;;;;;35.60;25.60;;;;;;;-1.37;100.00;99537.40;110433;1267;21989;-82
2023/11/29 10:34:25;;;;;;;26.90;22.10;;;;;;;-1.41;100.00;99534.33;109490;1274;21952;-81
2023/11/29 10:37:06;;;;;;;28.40;22.10;;;;;;;-1.46;100.00;99530.59;109163;1277;21998;-83
2023/11/29 10:39:56;;;;;;;33.70;19.30;;;;;;;-1.49;100.00;99522.74;109175;1273;21954;-79
2023/11/29 10:42:54;;;;;;;26.10;20.90;;;;;;;-1.45;100.00;99524.09;109450;1274;22027;-80
2023/11/29 10:45:42;;;;;;;32.70;24.20;;;;;;;-1.45;100.00;99524.27;109675;1274;21977;-81
2023/11/29 10:48:28;;;;;;;36.70;28.40;;;;;;;-1.52;100.00;99516.27;109537;1274;22742;-81
2023/11/29 10:51:26;;;;;;;29.40;21.90;;;;;;;-1.52;100.00;99510.98;109882;1271;22031;-82
2023/11/29 10:54:09;;;;;;;26.70;22.20;;;;;;;-1.55;100.00;99505.36;109398;1272;24090;-82
2023/11/29 10:57:09;;;;;;;29.40;23.20;;;;;;;-1.63;100.00;99501.61;110357;1266;22442;-81
2023/11/29 10:59:58;;;;;;;32.50;25.60;;;;;;;-1.72;100.00;99498.56;110232;1264;23120;-81
2023/11/29 11:02:38;;;;;;;35.60;30.10;;;;;;;-1.79;100.00;99492.09;110059;1252;23746;-81
2023/11/29 11:05:24;;;;;;;37.60;28.60;;;;;;;-1.86;100.00;99492.78;109800;1270;22006;-79
2023/11/29 11:07:59;;;;;;;35.10;27.20;;;;;;;-1.96;100.00;99490.40;109730;1270;23615;-80
2023/11/29 11:10:33;;;;;;;31.10;26.80;;;;;;;-1.97;100.00;99489.21;109825;1270;22141;-80
2023/11/29 11:13:10;;;;;;;31.00;21.60;;;;;;;-1.99;100.00;99484.10;109418;1267;22048;-81
2023/11/29 11:15:40;;;;;;;32.00;23.20;;;;;;;-2.02;100.00;99478.98;109520;1271;21968;-81
2023/11/29 11:18:12;;;;;;;39.70;29.40;;;;;;;-2.01;100.00;99474.38;109310;1275;22011;-80
2023/11/29 11:20:51;;;;;;;52.90;38.00;;;;;;;-1.96;100.00;99466.34;109272;1278;21998;-80
2023/11/29 11:23:27;;;;;;;35.30;25.70;;;;;;;-1.87;100.00;99461.56;109047;1276;21996;-80
2023/11/29 11:26:15;;;;;;;26.90;23.30;;;;;;;-1.80;100.00;99464.46;109200;1278;21983;-81
2023/11/29 11:28:56;;;;;;;26.10;21.60;;;;;;;-1.78;100.00;99463.09;109154;1278;21988;-84
2023/11/29 11:31:35;;;;;;;28.00;21.40;;;;;;;-1.86;100.00;99467.02;108938;1280;21996;-81
2023/11/29 11:34:14;;;;;;;27.70;21.00;;;;;;;-1.88;100.00;99463.77;109068;1274;21991;-82
2023/11/29 11:36:53;;;;;;;32.60;24.80;;;;;;;-1.85;100.00;99462.75;109018;1278;21993;-82
2023/11/29 11:39:35;;;;;;;39.50;28.20;;;;;;;-1.82;100.00;99462.41;109059;1278;22375;-82
2023/11/29 11:42:16;;;;;;;56.60;35.90;;;;;;;-1.72;100.00;99459.16;109612;1272;21983;-82
2023/11/29 11:44:51;;;;;;;44.90;28.80;;;;;;;-1.62;100.00;99456.40;109645;1267;22332;-81
2023/11/29 11:47:27;;;;;;;25.20;20.80;;;;;;;-1.62;100.00;99453.33;109334;1276;23630;-82
2023/11/29 11:50:16;;;;;;;34.10;23.60;;;;;;;-1.71;100.00;99444.99;109312;1274;22104;-81
2023/11/29 11:53:06;;;;;;;40.30;29.70;;;;;;;-1.61;100.00;99453.15;109472;1274;22329;-81
2023/11/29 11:55:47;;;;;;;29.90;21.40;;;;;;;-1.55;100.00;99448.53;109599;1271;21973;-82
2023/11/29 11:58:55;;;;;;;29.20;23.80;;;;;;;-1.60;100.00;99441.73;109810;1269;22073;-81
2023/11/29 12:01:45;;;;;;;31.20;23.40;;;;;;;-1.56;100.00;99439.14;109965;1270;21979;-84
2023/11/29 12:04:53;;;;;;;28.20;22.80;;;;;;;-1.57;100.00;99437.29;110306;1263;24331;-85
2023/11/29 12:07:45;;;;;;;36.90;26.90;;;;;;;-1.57;100.00;99434.54;110078;1268;23030;-80
2023/11/29 12:10:43;;;;;;;47.50;33.40;;;;;;;-1.60;100.00;99432.51;110408;1267;21998;-83
2023/11/29 12:13:36;;;;;;;36.10;29.50;;;;;;;-1.57;100.00;99434.55;110220;1262;24346;-82
2023/11/29 12:16:25;;;;;;;41.80;30.50;;;;;;;-1.57;100.00;99431.81;111024;1262;21962;-82
2023/11/29 12:19:01;;;;;;;33.30;26.80;;;;;;;-1.59;100.00;99418.00;110745;1262;21979;-83
2023/11/29 12:21:53;;;;;;;35.60;26.80;;;;;;;-1.52;100.00;99425.99;110902;1260;22002;-82
2023/11/29 12:24:59;;;;;;;32.90;26.80;;;;;;;-1.59;100.00;99424.48;109982;1255;23476;-85
2023/11/29 12:27:44;;;;;;;;;;;;;;;;;;;;;
2023/11/29 12:30:35;;;;;;;41.80;31.90;;;;;;;-1.77;100.00;99411.40;110566;1260;22757;-86
2023/11/29 12:33:19;;;;;;;37.10;30.00;;;;;;;-1.80;100.00;99414.66;110732;1263;21985;-84
2023/11/29 12:36:07;;;;;;;35.50;26.50;;;;;;;-1.80;100.00;99414.14;110733;1264;22011;-86
2023/11/29 12:38:57;;;;;;;39.90;29.00;;;;;;;-1.79;100.00;99414.48;109824;1270;22986;-86
2023/11/29 12:41:44;;;;;;;48.90;36.80;;;;;;;-1.99;100.00;99386.22;109620;1265;21989;-83
2023/11/29 12:44:36;;;;;;;;;;;;;;;;;;;;;